createdAt,value
2023-11-29T00:01:06.449Z,27.03
2023-11-29T00:03:32.825Z,25.50
2023-11-29T00:05:59.247Z,29.23
2023-11-29T00:08:25.730Z,27.77
2023-11-29T00:10:52.120Z,28.77
2023-11-29T00:13:21.216Z,29.93
2023-11-29T00:15:48.014Z,31.33
2023-11-29T00:18:14.836Z,27.63
2023-11-29T00:20:41.386Z,27.43
2023-11-29T00:23:07.864Z,32.27
2023-11-29T00:25:34.209Z,32.10
2023-11-29T00:28:00.578Z,33.83
2023-11-29T00:30:29.913Z,32.67
2023-11-29T00:32:57.146Z,31.10
2023-11-29T00:35:23.638Z,29.93
2023-11-29T00:37:50.053Z,32.50
2023-11-29T00:40:16.622Z,31.47
2023-11-29T00:42:43.649Z,33.50
2023-11-29T00:45:10.347Z,30.67
2023-11-29T00:47:37.104Z,36.63
2023-11-29T00:50:04.092Z,33.30
2023-11-29T00:52:30.427Z,30.53
2023-11-29T00:54:56.768Z,31.80
2023-11-29T00:57:23.679Z,31.57
2023-11-29T00:59:50.090Z,34.23
2023-11-29T01:02:16.619Z,32.97
2023-11-29T01:04:43.096Z,33.87
2023-11-29T01:07:09.441Z,35.77
2023-11-29T01:09:35.794Z,35.73
2023-11-29T01:12:02.317Z,35.00
2023-11-29T01:14:28.729Z,33.03
2023-11-29T01:16:55.167Z,32.07
2023-11-29T01:19:24.470Z,33.60
2023-11-29T01:21:51.462Z,33.53
2023-11-29T01:24:17.805Z,33.47
2023-11-29T01:26:44.337Z,33.23
2023-11-29T01:29:11.842Z,35.97
2023-11-29T01:31:38.326Z,35.40
2023-11-29T01:34:04.940Z,36.17
2023-11-29T01:36:31.307Z,33.73
2023-11-29T01:38:57.828Z,40.27
2023-11-29T01:41:24.238Z,38.77
2023-11-29T01:43:50.606Z,36.53
2023-11-29T01:46:17.072Z,36.20
2023-11-29T01:48:43.472Z,41.40
2023-11-29T01:51:10.344Z,38.30
2023-11-29T01:53:39.880Z,40.47
2023-11-29T01:56:07.349Z,39.87
2023-11-29T01:58:33.724Z,41.97
2023-11-29T02:01:00.761Z,41.97
2023-11-29T02:03:27.365Z,42.87
2023-11-29T02:05:54.150Z,41.23
2023-11-29T02:08:20.677Z,39.27
2023-11-29T02:10:47.840Z,44.17
2023-11-29T02:13:14.641Z,40.30
2023-11-29T02:15:41.018Z,37.90
2023-11-29T02:18:07.817Z,38.13
2023-11-29T02:20:34.488Z,40.67
2023-11-29T02:23:18.254Z,38.47
2023-11-29T02:25:44.695Z,39.40
2023-11-29T02:28:11.065Z,42.07
2023-11-29T02:30:37.499Z,43.50
2023-11-29T02:33:04.620Z,43.87
2023-11-29T02:35:31.075Z,44.20
2023-11-29T02:37:57.545Z,47.33
2023-11-29T02:40:25.634Z,39.63
2023-11-29T02:42:52.090Z,42.90
2023-11-29T02:45:18.594Z,41.07
2023-11-29T02:47:45.074Z,41.97
2023-11-29T02:50:11.548Z,45.10
2023-11-29T02:52:38.045Z,41.97
2023-11-29T02:55:04.605Z,44.57
2023-11-29T02:57:31.853Z,43.23
2023-11-29T02:59:58.263Z,42.60
2023-11-29T03:02:24.764Z,42.93
2023-11-29T03:04:51.257Z,44.17
2023-11-29T03:07:17.628Z,42.57
2023-11-29T03:09:43.986Z,43.30
2023-11-29T03:12:10.433Z,40.20
2023-11-29T03:14:36.922Z,40.87
2023-11-29T03:17:03.371Z,41.23
2023-11-29T03:19:29.786Z,42.37
2023-11-29T03:21:56.152Z,38.33
2023-11-29T03:24:22.467Z,44.07
2023-11-29T03:26:49.150Z,39.80
2023-11-29T03:29:15.597Z,38.77
2023-11-29T03:31:42.008Z,39.50
2023-11-29T03:34:08.340Z,37.90
2023-11-29T03:36:34.718Z,40.47
2023-11-29T03:39:01.102Z,40.03
2023-11-29T03:41:29.436Z,42.13
2023-11-29T03:43:56.344Z,43.30
2023-11-29T03:46:22.818Z,39.07
2023-11-29T03:48:49.224Z,47.47
2023-11-29T03:51:15.531Z,50.40
2023-11-29T03:53:41.913Z,43.37
2023-11-29T03:56:08.442Z,45.17
2023-11-29T03:58:34.857Z,43.83
2023-11-29T04:01:04.365Z,45.10
2023-11-29T04:03:30.893Z,43.73
2023-11-29T04:05:57.588Z,41.87
2023-11-29T04:08:24.027Z,47.83
2023-11-29T04:10:50.533Z,43.40
2023-11-29T04:13:16.879Z,51.53
2023-11-29T04:15:43.334Z,70.80
2023-11-29T04:18:09.761Z,105.00
2023-11-29T04:20:36.142Z,104.77
2023-11-29T04:23:02.579Z,91.07
2023-11-29T04:25:28.968Z,68.83
2023-11-29T04:27:55.359Z,215.00
2023-11-29T04:30:22.757Z,262.43
2023-11-29T04:32:50.113Z,322.50
2023-11-29T04:35:16.653Z,272.97
2023-11-29T04:37:43.787Z,67.43
2023-11-29T04:40:10.238Z,100.77
2023-11-29T04:42:36.736Z,45.03
2023-11-29T04:45:03.312Z,35.70
2023-11-29T04:47:29.801Z,34.73
2023-11-29T04:49:56.121Z,33.90
2023-11-29T04:52:22.572Z,34.50
2023-11-29T04:54:49.055Z,35.33
2023-11-29T04:57:15.437Z,37.37
2023-11-29T04:59:41.859Z,36.27
2023-11-29T05:02:08.389Z,40.40
2023-11-29T05:04:34.755Z,38.23
2023-11-29T05:07:01.147Z,54.57
2023-11-29T05:09:27.513Z,104.50
2023-11-29T05:11:53.846Z,35.17
2023-11-29T05:14:20.411Z,42.77
2023-11-29T05:16:47.128Z,48.73
2023-11-29T05:19:13.575Z,49.70
2023-11-29T05:21:40.030Z,56.37
2023-11-29T05:24:06.595Z,45.13
2023-11-29T05:26:33.653Z,59.20
2023-11-29T05:29:01.648Z,86.13
2023-11-29T05:31:28.336Z,63.83
2023-11-29T05:33:57.256Z,40.50
2023-11-29T05:36:23.628Z,35.87
2023-11-29T05:38:50.098Z,28.80
2023-11-29T05:41:17.027Z,30.67
2023-11-29T05:43:43.552Z,30.60
2023-11-29T05:46:10.168Z,24.17
2023-11-29T05:48:36.577Z,25.60
2023-11-29T05:51:03.532Z,32.87
2023-11-29T05:53:30.223Z,23.77
2023-11-29T05:55:56.581Z,25.87
2023-11-29T05:58:22.890Z,28.27
2023-11-29T06:00:49.314Z,26.47
2023-11-29T06:03:16.405Z,25.17
2023-11-29T06:05:42.868Z,27.20
2023-11-29T06:08:09.257Z,24.13
2023-11-29T06:10:35.629Z,32.50
2023-11-29T06:13:02.140Z,30.33
2023-11-29T06:15:29.418Z,25.87
2023-11-29T06:17:56.005Z,26.30
2023-11-29T06:20:23.451Z,31.87
2023-11-29T06:22:50.363Z,41.20
2023-11-29T06:25:16.770Z,45.27
2023-11-29T06:27:45.586Z,53.07
2023-11-29T06:30:12.174Z,83.93
2023-11-29T06:32:38.833Z,45.03
2023-11-29T06:35:07.683Z,122.37
2023-11-29T06:37:35.503Z,71.10
2023-11-29T06:40:03.173Z,204.53
2023-11-29T06:42:29.543Z,220.43
2023-11-29T06:44:55.944Z,170.23
2023-11-29T06:47:22.326Z,236.37
2023-11-29T06:49:50.396Z,108.03
2023-11-29T06:52:16.770Z,209.97
2023-11-29T06:54:43.199Z,91.87
2023-11-29T06:57:09.639Z,60.07
2023-11-29T06:59:36.769Z,67.13
2023-11-29T07:02:06.158Z,108.80
2023-11-29T07:04:33.202Z,85.90
2023-11-29T07:07:00.564Z,61.20
2023-11-29T07:09:27.718Z,31.07
2023-11-29T07:11:54.108Z,33.83
2023-11-29T07:14:20.518Z,36.87
2023-11-29T07:16:46.854Z,31.10
2023-11-29T07:19:13.258Z,30.97
2023-11-29T07:21:39.647Z,34.30
2023-11-29T07:24:07.156Z,29.27
2023-11-29T07:26:33.891Z,31.57
2023-11-29T07:29:00.289Z,37.53
2023-11-29T07:31:26.805Z,31.77
2023-11-29T07:33:53.384Z,41.47
2023-11-29T07:36:19.853Z,50.00
2023-11-29T07:38:46.824Z,73.47
2023-11-29T07:41:13.334Z,82.70
2023-11-29T07:43:39.693Z,110.73
2023-11-29T07:46:06.157Z,150.60
2023-11-29T07:48:32.623Z,100.97
2023-11-29T07:50:59.943Z,63.30
2023-11-29T07:53:26.461Z,57.87
2023-11-29T07:55:52.833Z,67.60
2023-11-29T07:58:24.849Z,53.03
2023-11-29T08:00:57.710Z,57.67
2023-11-29T08:03:24.065Z,40.27
2023-11-29T08:05:50.518Z,48.37
2023-11-29T08:08:17.426Z,106.93
2023-11-29T08:10:43.821Z,91.03
2023-11-29T08:13:10.207Z,48.13
2023-11-29T08:15:38.188Z,50.60
2023-11-29T08:18:05.227Z,58.93
2023-11-29T08:20:32.253Z,65.50
2023-11-29T08:22:58.606Z,50.93
2023-11-29T08:25:26.740Z,43.07
2023-11-29T08:27:53.910Z,32.67
2023-11-29T08:30:20.286Z,41.13
2023-11-29T08:32:46.828Z,46.67
2023-11-29T08:35:13.719Z,38.40
2023-11-29T08:37:40.108Z,33.97
2023-11-29T08:40:08.151Z,35.27
2023-11-29T08:42:34.915Z,32.10
2023-11-29T08:45:01.403Z,34.30
2023-11-29T08:47:27.815Z,33.40
2023-11-29T08:49:54.417Z,34.13
2023-11-29T08:52:24.328Z,30.77
2023-11-29T08:54:54.490Z,28.97
2023-11-29T08:57:24.615Z,42.47
2023-11-29T08:59:51.696Z,54.73
2023-11-29T09:02:22.353Z,124.63
2023-11-29T09:04:49.442Z,76.53
2023-11-29T09:07:16.362Z,141.67
2023-11-29T09:09:45.135Z,184.50
2023-11-29T09:12:16.170Z,122.93
2023-11-29T09:14:42.520Z,334.93
2023-11-29T09:17:09.030Z,119.63
2023-11-29T09:19:35.496Z,195.63
2023-11-29T09:22:02.241Z,452.00
2023-11-29T09:24:28.872Z,414.13
2023-11-29T09:26:58.359Z,286.77
2023-11-29T09:29:27.254Z,205.63
2023-11-29T09:31:53.879Z,295.23
2023-11-29T09:34:21.686Z,281.37
2023-11-29T09:36:48.017Z,243.73
2023-11-29T09:39:16.508Z,212.30
2023-11-29T09:41:44.854Z,193.53
2023-11-29T09:44:11.212Z,122.77
2023-11-29T09:46:38.394Z,58.67
2023-11-29T09:49:05.475Z,40.07
2023-11-29T09:51:32.004Z,38.37
2023-11-29T09:53:58.857Z,45.00
2023-11-29T09:56:25.368Z,37.10
2023-11-29T09:58:51.707Z,36.27
2023-11-29T10:01:18.052Z,34.00
2023-11-29T10:03:49.785Z,29.90
2023-11-29T10:06:16.543Z,34.00
2023-11-29T10:08:43.052Z,34.87
2023-11-29T10:11:09.410Z,36.30
2023-11-29T10:13:35.799Z,37.23
2023-11-29T10:16:02.458Z,34.20
2023-11-29T10:18:28.993Z,28.70
2023-11-29T10:21:03.720Z,31.83
2023-11-29T10:23:35.411Z,32.10
2023-11-29T10:26:01.927Z,24.03
2023-11-29T10:28:28.290Z,28.60
2023-11-29T10:30:54.670Z,30.57
2023-11-29T10:33:21.195Z,26.73
2023-11-29T10:35:48.169Z,27.03
2023-11-29T10:38:16.094Z,26.43
2023-11-29T10:40:43.380Z,23.57
2023-11-29T10:43:10.529Z,26.90
2023-11-29T10:45:40.196Z,24.63
2023-11-29T10:48:15.752Z,23.83
2023-11-29T10:50:42.464Z,22.00
2023-11-29T10:53:09.050Z,20.20
2023-11-29T10:55:40.005Z,20.47
2023-11-29T10:58:17.868Z,20.43
2023-11-29T11:00:45.771Z,20.20
2023-11-29T11:03:31.249Z,18.97
2023-11-29T11:06:16.651Z,21.03
2023-11-29T11:08:43.067Z,21.47
2023-11-29T11:11:09.406Z,20.90
2023-11-29T11:13:37.382Z,22.97
2023-11-29T11:16:03.833Z,22.30
2023-11-29T11:18:31.012Z,22.17
2023-11-29T11:20:57.584Z,20.50
2023-11-29T11:23:25.383Z,19.50
2023-11-29T11:25:56.726Z,21.03
2023-11-29T11:28:33.431Z,17.10
2023-11-29T11:31:03.518Z,18.50
2023-11-29T11:33:48.730Z,18.80
2023-11-29T11:36:16.550Z,19.87
2023-11-29T11:38:44.896Z,16.27
2023-11-29T11:41:12.113Z,16.13
2023-11-29T11:43:38.565Z,16.47
2023-11-29T11:46:04.924Z,17.57
2023-11-29T11:48:32.119Z,17.50
2023-11-29T11:50:58.548Z,16.70
2023-11-29T11:53:24.938Z,15.47
2023-11-29T11:55:52.290Z,16.80
2023-11-29T11:58:20.240Z,17.93
2023-11-29T12:00:50.565Z,18.33
2023-11-29T12:03:17.574Z,17.07
2023-11-29T12:05:44.286Z,15.50
2023-11-29T12:08:10.698Z,17.87
2023-11-29T12:10:37.078Z,18.50
2023-11-29T12:13:03.604Z,17.97
2023-11-29T12:15:34.558Z,19.90
2023-11-29T12:18:01.215Z,18.37
2023-11-29T12:20:27.655Z,19.77
2023-11-29T12:22:54.050Z,19.97
2023-11-29T12:25:21.173Z,22.57
2023-11-29T12:27:48.710Z,20.67
2023-11-29T12:30:15.394Z,18.80
2023-11-29T12:32:42.302Z,19.90
2023-11-29T12:35:09.421Z,19.10
2023-11-29T12:37:35.753Z,20.00
2023-11-29T12:40:02.202Z,19.40
2023-11-29T12:42:28.536Z,18.57
2023-11-29T12:44:55.052Z,19.00
2023-11-29T12:47:24.671Z,17.93
2023-11-29T12:49:51.084Z,18.90
2023-11-29T12:52:17.648Z,20.90
2023-11-29T12:54:44.597Z,22.23
2023-11-29T12:57:11.065Z,19.63
2023-11-29T12:59:37.644Z,17.30
2023-11-29T13:02:04.696Z,18.77
2023-11-29T13:04:31.685Z,21.73
2023-11-29T13:06:58.096Z,19.80
2023-11-29T13:09:25.485Z,22.70
2023-11-29T13:11:52.523Z,21.03
2023-11-29T13:14:19.235Z,20.37
2023-11-29T13:16:45.574Z,18.83
2023-11-29T13:19:11.965Z,20.50
2023-11-29T13:21:38.622Z,23.30
2023-11-29T13:24:05.361Z,21.23
2023-11-29T13:26:31.824Z,19.00
2023-11-29T13:28:58.304Z,21.37
2023-11-29T13:31:24.705Z,23.40
2023-11-29T13:33:51.191Z,22.50
2023-11-29T13:36:17.662Z,21.60
2023-11-29T13:38:44.431Z,22.53
2023-11-29T13:41:10.979Z,22.40
2023-11-29T13:43:37.334Z,23.60
2023-11-29T13:46:04.445Z,23.60
2023-11-29T13:48:31.428Z,24.50
2023-11-29T13:51:00.045Z,25.00
2023-11-29T13:53:28.200Z,23.57
2023-11-29T13:55:54.785Z,25.33
2023-11-29T13:58:21.178Z,25.40
2023-11-29T14:00:47.617Z,24.43
2023-11-29T14:03:18.041Z,24.07
2023-11-29T14:05:48.832Z,22.37
2023-11-29T14:08:15.469Z,20.03
2023-11-29T14:10:41.930Z,23.20
2023-11-29T14:13:08.366Z,23.57
2023-11-29T14:15:35.811Z,24.27
2023-11-29T14:18:03.744Z,22.43
2023-11-29T14:20:30.278Z,22.63
2023-11-29T14:22:57.373Z,21.13
2023-11-29T14:25:23.856Z,21.03
2023-11-29T14:27:54.681Z,19.23
2023-11-29T14:30:24.450Z,18.73
2023-11-29T14:32:50.976Z,23.17
2023-11-29T14:35:17.497Z,18.33
2023-11-29T14:37:44.118Z,23.23
2023-11-29T14:40:10.716Z,22.93
2023-11-29T14:42:37.143Z,22.73
2023-11-29T14:45:05.162Z,20.73
2023-11-29T14:47:31.775Z,19.53
2023-11-29T14:49:58.348Z,15.57
2023-11-29T14:52:24.812Z,17.13
2023-11-29T14:54:51.314Z,17.83
2023-11-29T14:57:17.747Z,16.70
2023-11-29T14:59:44.130Z,14.87
2023-11-29T15:02:10.496Z,17.07
2023-11-29T15:04:36.867Z,17.83
2023-11-29T15:07:03.486Z,17.37
2023-11-29T15:09:32.456Z,14.70
2023-11-29T15:11:58.930Z,14.80
2023-11-29T15:14:25.388Z,16.73
2023-11-29T15:16:53.986Z,15.40
2023-11-29T15:19:20.377Z,17.77
2023-11-29T15:21:46.748Z,16.27
2023-11-29T15:24:13.092Z,15.57
2023-11-29T15:26:40.847Z,15.73
2023-11-29T15:29:07.427Z,18.77
2023-11-29T15:31:33.888Z,18.47
2023-11-29T15:34:00.457Z,19.63
2023-11-29T15:36:26.976Z,20.17
2023-11-29T15:38:53.937Z,20.57
2023-11-29T15:41:22.025Z,20.83
2023-11-29T15:43:49.564Z,20.43
2023-11-29T15:46:16.188Z,23.67
2023-11-29T15:48:42.684Z,21.60
2023-11-29T15:51:09.910Z,22.33
2023-11-29T15:53:37.482Z,18.80
2023-11-29T15:56:05.524Z,20.93
2023-11-29T15:58:32.176Z,16.50
2023-11-29T16:00:58.564Z,15.53
2023-11-29T16:03:25.127Z,15.47
2023-11-29T16:05:55.138Z,12.80
2023-11-29T16:08:21.583Z,10.93
2023-11-29T16:10:47.973Z,13.23
2023-11-29T16:13:14.347Z,9.90
2023-11-29T16:15:40.727Z,8.53
2023-11-29T16:18:07.096Z,7.37
2023-11-29T16:20:37.269Z,7.93
2023-11-29T16:23:04.168Z,8.27
2023-11-29T16:25:30.573Z,6.17
2023-11-29T16:27:56.969Z,8.30
2023-11-29T16:30:23.618Z,8.43
2023-11-29T16:32:50.460Z,6.77
2023-11-29T16:35:16.930Z,7.57
2023-11-29T16:37:43.239Z,6.50
2023-11-29T16:40:09.977Z,6.83
2023-11-29T16:42:36.300Z,6.83
2023-11-29T16:45:04.109Z,9.00
2023-11-29T16:47:30.569Z,6.70
2023-11-29T16:49:56.937Z,9.23
2023-11-29T16:52:23.301Z,7.27
2023-11-29T16:54:49.662Z,7.97
2023-11-29T16:57:16.132Z,8.27
2023-11-29T16:59:42.967Z,7.00
2023-11-29T17:02:09.847Z,11.47
2023-11-29T17:04:37.653Z,13.03
2023-11-29T17:07:04.089Z,12.90
2023-11-29T17:09:30.553Z,20.63
2023-11-29T17:11:58.822Z,17.33
2023-11-29T17:14:25.286Z,18.13
2023-11-29T17:16:54.559Z,37.13
2023-11-29T17:19:20.990Z,82.10
2023-11-29T17:21:47.310Z,81.53
2023-11-29T17:24:13.804Z,69.87
2023-11-29T17:26:41.904Z,70.47
2023-11-29T17:29:08.391Z,81.60
2023-11-29T17:31:35.903Z,54.20
2023-11-29T17:34:02.306Z,74.27
2023-11-29T17:36:29.823Z,92.43
2023-11-29T17:38:58.713Z,31.93
2023-11-29T17:41:25.116Z,42.23
2023-11-29T17:43:51.478Z,79.97
2023-11-29T17:46:17.897Z,67.07
2023-11-29T17:48:44.348Z,64.87
2023-11-29T17:51:10.904Z,68.20
2023-11-29T17:53:37.355Z,29.47
2023-11-29T17:56:04.092Z,68.90
2023-11-29T17:58:30.411Z,69.27
2023-11-29T18:00:56.727Z,77.93
2023-11-29T18:03:24.003Z,76.87
2023-11-29T18:05:50.388Z,31.77
2023-11-29T18:08:16.766Z,60.23
2023-11-29T18:10:53.550Z,67.10
2023-11-29T18:13:21.753Z,53.50
2023-11-29T18:15:48.604Z,32.43
2023-11-29T18:18:15.178Z,36.33
2023-11-29T18:20:45.619Z,22.00
2023-11-29T18:23:13.363Z,29.97
2023-11-29T18:25:48.527Z,41.90
2023-11-29T18:28:22.964Z,17.00
2023-11-29T18:30:49.501Z,17.97
2023-11-29T18:33:15.916Z,17.67
2023-11-29T18:35:42.378Z,15.87
2023-11-29T18:38:08.761Z,10.77
2023-11-29T18:40:35.101Z,14.70
2023-11-29T18:43:01.407Z,15.43
2023-11-29T18:45:27.753Z,13.80
2023-11-29T18:47:54.516Z,11.70
2023-11-29T18:50:20.911Z,15.50
2023-11-29T18:52:47.460Z,12.37
2023-11-29T18:55:13.810Z,12.17
2023-11-29T18:57:42.614Z,12.57
2023-11-29T19:00:10.149Z,13.57
2023-11-29T19:02:37.410Z,14.27
2023-11-29T19:05:04.095Z,14.07
2023-11-29T19:07:30.453Z,19.93
2023-11-29T19:09:56.940Z,32.80
2023-11-29T19:12:24.668Z,24.37
2023-11-29T19:14:52.175Z,33.13
2023-11-29T19:17:18.670Z,15.93
2023-11-29T19:19:44.989Z,25.67
2023-11-29T19:22:11.864Z,75.73
2023-11-29T19:24:38.564Z,108.13
2023-11-29T19:27:05.296Z,77.10
2023-11-29T19:29:31.733Z,51.08
2023-11-29T19:31:58.095Z,94.83
2023-11-29T19:34:24.732Z,70.80
2023-11-29T19:36:51.381Z,92.80
2023-11-29T19:39:20.330Z,55.27
2023-11-29T19:41:47.254Z,47.33
2023-11-29T19:44:14.763Z,46.10
2023-11-29T19:46:41.249Z,197.60
2023-11-29T19:49:07.601Z,80.27
2023-11-29T19:51:33.975Z,61.90
2023-11-29T19:54:00.408Z,55.77
2023-11-29T19:56:26.852Z,66.17
2023-11-29T19:58:53.460Z,91.63
2023-11-29T20:01:22.547Z,68.17
2023-11-29T20:03:49.293Z,94.27
2023-11-29T20:06:19.683Z,50.90
2023-11-29T20:08:51.610Z,79.87
2023-11-29T20:11:17.953Z,76.37
2023-11-29T20:13:44.306Z,52.20
2023-11-29T20:16:11.463Z,71.60
2023-11-29T20:18:39.421Z,44.23
2023-11-29T20:21:06.031Z,135.43
2023-11-29T20:23:32.549Z,61.30
2023-11-29T20:25:59.237Z,57.07
2023-11-29T20:28:25.683Z,96.73
2023-11-29T20:30:53.347Z,83.33
2023-11-29T20:33:20.213Z,97.47
2023-11-29T20:35:47.614Z,85.23
2023-11-29T20:38:13.961Z,74.67
2023-11-29T20:40:44.938Z,86.63
2023-11-29T20:43:17.973Z,138.13
2023-11-29T20:45:44.894Z,98.07
2023-11-29T20:48:12.057Z,101.93
2023-11-29T20:50:39.390Z,54.00
2023-11-29T20:53:14.393Z,113.00
2023-11-29T20:55:47.986Z,136.93
2023-11-29T20:58:15.625Z,51.00
2023-11-29T21:00:42.896Z,63.37
2023-11-29T21:03:09.522Z,72.17
2023-11-29T21:05:35.965Z,32.03
2023-11-29T21:08:02.321Z,32.20
2023-11-29T21:10:28.758Z,15.23
2023-11-29T21:12:58.725Z,19.03
2023-11-29T21:15:25.413Z,26.90
2023-11-29T21:17:53.544Z,13.70
2023-11-29T21:20:20.045Z,18.73
2023-11-29T21:22:46.438Z,239.73
2023-11-29T21:25:13.040Z,192.03
2023-11-29T21:27:39.350Z,40.83
2023-11-29T21:30:06.095Z,166.93
2023-11-29T21:32:32.477Z,236.40
2023-11-29T21:34:58.772Z,80.73
2023-11-29T21:37:25.302Z,29.93
2023-11-29T21:39:51.861Z,25.87
2023-11-29T21:42:18.256Z,280.33
2023-11-29T21:44:45.665Z,32.07
2023-11-29T21:47:12.109Z,108.17
2023-11-29T21:49:39.251Z,206.97
2023-11-29T21:52:05.771Z,25.40
2023-11-29T21:54:33.162Z,18.53
2023-11-29T21:56:59.670Z,19.70
2023-11-29T21:59:25.975Z,18.93
2023-11-29T22:01:53.825Z,14.87
2023-11-29T22:04:21.473Z,14.23
2023-11-29T22:06:48.726Z,14.97
2023-11-29T22:09:15.480Z,10.63
2023-11-29T22:11:42.952Z,10.63
2023-11-29T22:14:12.476Z,9.50
2023-11-29T22:16:39.533Z,11.57
2023-11-29T22:19:08.806Z,9.83
2023-11-29T22:21:35.164Z,11.80
2023-11-29T22:24:01.624Z,13.27
2023-11-29T22:26:28.054Z,14.17
2023-11-29T22:28:54.454Z,11.83
2023-11-29T22:31:20.911Z,11.43
2023-11-29T22:33:47.352Z,22.03
2023-11-29T22:36:14.859Z,20.13
2023-11-29T22:38:41.282Z,21.27
2023-11-29T22:41:08.249Z,47.03
2023-11-29T22:43:34.625Z,39.30
2023-11-29T22:46:01.173Z,39.53
2023-11-29T22:48:27.790Z,29.37
2023-11-29T22:50:54.252Z,36.50
2023-11-29T22:53:20.736Z,10.57
2023-11-29T22:55:47.060Z,19.23
2023-11-29T22:58:13.413Z,41.70
2023-11-29T23:00:39.776Z,97.67
2023-11-29T23:03:06.657Z,73.33
2023-11-29T23:05:33.859Z,74.63
2023-11-29T23:08:00.215Z,26.07
2023-11-29T23:10:26.594Z,68.93
2023-11-29T23:12:52.922Z,46.43
2023-11-29T23:15:19.705Z,58.10
2023-11-29T23:17:46.216Z,50.27
2023-11-29T23:20:12.827Z,92.57
2023-11-29T23:22:39.185Z,26.43
2023-11-29T23:25:06.847Z,74.33
2023-11-29T23:27:33.343Z,86.87
2023-11-29T23:29:59.894Z,42.93
2023-11-29T23:32:26.242Z,19.20
2023-11-29T23:34:52.599Z,69.07
2023-11-29T23:37:18.924Z,54.73
2023-11-29T23:39:45.378Z,58.73
2023-11-29T23:42:11.785Z,47.27
2023-11-29T23:44:38.130Z,63.53
2023-11-29T23:47:04.439Z,112.60
2023-11-29T23:49:30.758Z,103.67
2023-11-29T23:51:57.054Z,86.17
2023-11-29T23:54:23.367Z,112.10
2023-11-29T23:56:50.105Z,148.50
2023-11-29T23:59:16.490Z,70.67
